Buoy 16555

sailwx.info

Track history (hours):
 
Tides and Currents Weather Stations Pressure Air Temp Water Temp Dewpoint Dewpoint Depression Visibility Wind Speed Wind Dir Waves Ship Positions

Drifting buoy 16555

Last reported at 2017-Mar-23 16:00 UTC. Time now 2017-Mar-23 20:17 UTC.
Position S 30°38' E 090°37'.

Barometer 1024.8 mb
Water temperature 22.8 ° C

Date/timePositionNaut miles runAvg speedWind from/ knotsBaromVisibWave heightAir tempDewpointWater temp
2017-Mar-23 16:00S 30°38' E 090°37'1 0.8 1024.8 22.8
2017-Mar-23 15:00S 30°37' E 090°37'0 0.0 1024.7 22.8
2017-Mar-23 14:00S 30°37' E 090°37'2 0.7 1024.4 22.8
2017-Mar-23 11:00S 30°37' E 090°40'2 1.0 1023.2 22.9
2017-Mar-23 09:00S 30°35' E 090°38'1 0.1 1023.3 22.9
2017-Mar-23 03:00S 30°35' E 090°38'1 0.4 1024.5 22.9
2017-Mar-23 01:00S 30°35' E 090°38'2 1.9 1024.1 22.9
2017-Mar-23 00:00S 30°33' E 090°37'1 0.6 1023.7 22.9
2017-Mar-22 22:00S 30°32' E 090°37'3 0.8 1023.3 22.9
2017-Mar-22 18:00S 30°29' E 090°35'1 0.4 1024.1 22.9
2017-Mar-22 16:00S 30°28' E 090°36'1 0.8 1024.4 22.9
2017-Mar-22 15:00S 30°28' E 090°37'1 0.8 1024.3 22.9
2017-Mar-22 14:00S 30°27' E 090°37'0 0.0 1024.2 22.9
2017-Mar-22 13:00S 30°27' E 090°37'1 1.2 1023.7 22.9
2017-Mar-22 12:00S 30°26' E 090°38'1 0.5 1023.2 22.9
2017-Mar-22 11:00S 30°26' E 090°39'0 0.0 1023.2 23.0
2017-Mar-22 10:00S 30°26' E 090°39'0 0.0 1023.0 23.0
2017-Mar-22 09:00S 30°26' E 090°39'2 0.3 1023.0 23.0
2017-Mar-22 04:00S 30°26' E 090°37'1 0.8 1025.0 22.9
2017-Mar-22 03:00S 30°25' E 090°37'1 0.2 1025.0 22.9
2017-Mar-22 00:00S 30°25' E 090°37'2 1.9 1024.2 22.9
2017-Mar-21 23:00S 30°23' E 090°36'1 1.2 1023.7 22.9
2017-Mar-21 22:00S 30°22' E 090°36'0 0.0 1023.5 22.9
2017-Mar-21 21:00S 30°22' E 090°36'1 1.3 1023.7 22.9
2017-Mar-21 20:00S 30°20' E 090°35'0 0.0 1024.0 23.0
2017-Mar-21 19:00S 30°20' E 090°35'2 0.9 1024.5 23.0
2017-Mar-21 17:00S 30°19' E 090°35'0 0.0 1025.1 23.0
2017-Mar-21 16:00S 30°19' E 090°35'2 2.0 1025.3 23.0
2017-Mar-21 15:00S 30°17' E 090°37'1 0.3 1025.3 23.0
2017-Mar-21 13:00S 30°17' E 090°37'1 0.5 1024.8 23.0
2017-Mar-21 12:00S 30°17' E 090°38'1 0.3 1024.5 23.0
2017-Mar-21 09:00S 30°16' E 090°38'1 0.2 1024.0 23.1
2017-Mar-21 04:00S 30°16' E 090°37'0 0.0 1025.8 23.0
2017-Mar-21 03:00S 30°16' E 090°37'2 1.1 1025.9 23.0
2017-Mar-21 01:00S 30°15' E 090°35'1 1.2 1025.4 23.0
2017-Mar-21 00:00S 30°14' E 090°35'1 0.5 1025.0 23.1
2017-Mar-20 23:00S 30°14' E 090°34'2 1.9 1024.6 23.1
2017-Mar-20 22:00S 30°12' E 090°34'0 0.0 1024.7 23.1
2017-Mar-20 21:00S 30°12' E 090°34'2 0.6 1024.7 23.1
2017-Mar-20 18:00S 30°10' E 090°34'1 1.3 1025.3 23.1
2017-Mar-20 17:00S 30°09' E 090°35'1 0.3 1025.1 23.1
2017-Mar-20 13:00S 30°09' E 090°36'1 0.8 1024.7 23.2
2017-Mar-20 12:00S 30°08' E 090°37'0 0.0 1024.4 23.2
2017-Mar-20 11:00S 30°08' E 090°37'1 0.3 1024.2 23.2
2017-Mar-20 09:00S 30°08' E 090°37'0 0.0 1024.4 23.3
2017-Mar-20 08:00S 30°08' E 090°37'2 2.1 1024.6 23.3
2017-Mar-20 07:00S 30°07' E 090°36'2 0.3 1024.8 23.3
2017-Mar-20 02:00S 30°07' E 090°34'1 0.6 1026.0 23.2
2017-Mar-20 01:00S 30°07' E 090°34'0 0.0 1025.9 23.2
2017-Mar-20 00:00S 30°07' E 090°34'2 1.0 1025.8 23.2
2017-Mar-19 22:00S 30°05' E 090°32'1 1.3 1025.4 23.2
2017-Mar-19 21:00S 30°04' E 090°32'2 0.4 1025.8 23.2
2017-Mar-19 16:00S 30°02' E 090°31'0 0.0 1027.7 23.2
2017-Mar-19 15:00S 30°02' E 090°31'1 0.6 1027.7 23.2
2017-Mar-19 14:00S 30°02' E 090°31'0 0.0 1027.8 23.2
2017-Mar-19 12:00S 30°02' E 090°31'1 0.4 1027.5 23.3
2017-Mar-19 10:00S 30°01' E 090°31'1 0.5 1026.8 23.3
2017-Mar-19 09:00S 30°01' E 090°31'0 0.0 1026.6 23.3
2017-Mar-19 08:00S 30°01' E 090°31'3 0.4 1026.8 23.3
2017-Mar-19 02:00S 30°01' E 090°28'1 0.8 1029.1 23.2
2017-Mar-19 01:00S 30°00' E 090°28'0 0.0 1028.8 23.2
2017-Mar-19 00:00S 30°00' E 090°28'1 0.5 1028.4 23.2
2017-Mar-18 23:00S 30°00' E 090°28'1 0.7 1027.9 23.2
2017-Mar-18 21:00S 29°59' E 090°28'4 0.7 1028.3 23.2
2017-Mar-18 16:00S 29°56' E 090°25'1 0.6 1030.1 23.3
2017-Mar-18 14:00S 29°55' E 090°25'1 0.3 1029.9 23.3
2017-Mar-18 12:00S 29°55' E 090°26'1 1.2 1029.0 23.3
2017-Mar-18 11:00S 29°53' E 090°26'1 0.6 1029.0 23.3
2017-Mar-18 10:00S 29°54' E 090°26'1 0.6 1028.7 23.3
2017-Mar-18 09:00S 29°53' E 090°26'1 0.2 1028.5 23.3
2017-Mar-18 04:00S 29°53' E 090°25'1 0.5 1030.0 23.3
2017-Mar-18 03:00S 29°53' E 090°25'2 1.1 1029.8 23.3
2017-Mar-18 01:00S 29°52' E 090°22'0 0.0 1029.2 23.4
2017-Mar-18 00:00S 29°52' E 090°22'1 0.8 1028.8 23.4
2017-Mar-17 23:00S 29°52' E 090°22'2 0.6 1028.4 23.4
2017-Mar-17 20:00S 29°50' E 090°21'3 0.8 1027.6 23.4
2017-Mar-17 16:00S 29°47' E 090°22'2 0.8 1027.4 23.5
2017-Mar-17 14:00S 29°46' E 090°20'1 0.3 1026.5 23.5
2017-Mar-17 12:00S 29°45' E 090°20'0 0.0 1025.2 23.5
2017-Mar-17 11:00S 29°45' E 090°20'1 0.4 1024.9 23.6
2017-Mar-17 09:00S 29°44' E 090°21'1 0.1 1024.2 23.6
2017-Mar-17 04:00S 29°44' E 090°21'0 0.0 1024.4 23.6
2017-Mar-17 03:00S 29°44' E 090°21'2 0.8 1024.0 23.5
2017-Mar-17 01:00S 29°43' E 090°19'0 0.0 1023.3 23.6
2017-Mar-17 00:00S 29°43' E 090°19'1 1.0 1022.3 23.6
2017-Mar-16 23:00S 29°43' E 090°18'0 0.0 1022.1 23.6
2017-Mar-16 22:00S 29°43' E 090°18'0 0.0 1021.9 23.6
2017-Mar-16 21:00S 29°43' E 090°18'3 2.6 1022.1 23.6
2017-Mar-16 20:00S 29°41' E 090°17'1 0.4 1021.9 23.6
2017-Mar-16 17:00S 29°40' E 090°17'0 0.0 1022.9 23.6
2017-Mar-16 16:00S 29°40' E 090°17'0 0.0 1023.2 23.6
2017-Mar-16 15:00S 29°40' E 090°17'1 0.6 1023.2 23.6
2017-Mar-16 14:00S 29°39' E 090°17'0 0.0 1022.8 23.6
2017-Mar-16 13:00S 29°39' E 090°17'1 0.5 1022.4 23.6
2017-Mar-16 12:00S 29°39' E 090°16'1 0.5 1022.4 23.6
2017-Mar-16 11:00S 29°39' E 090°16'1 0.8 1022.4 23.7
2017-Mar-16 10:00S 29°38' E 090°16'1 0.8 1022.6 23.7
2017-Mar-16 09:00S 29°38' E 090°16'2 2.0 1022.4 23.7
2017-Mar-16 08:00S 29°37' E 090°14'1 0.1 1022.8 23.7
2017-Mar-16 04:00S 29°37' E 090°14'1 0.8 1024.6 23.6
2017-Mar-16 03:00S 29°36' E 090°14'1 0.5 1024.8 23.6
2017-Mar-16 02:00S 29°36' E 090°13'1 0.8 1024.6 23.6
2017-Mar-16 01:00S 29°35' E 090°13'0 0.0 1024.7 23.7
2017-Mar-16 00:00S 29°35' E 090°13'0 0.0 1024.2 23.7
2017-Mar-15 23:00S 29°35' E 090°13'1 0.8 1023.8 23.7
2017-Mar-15 22:00S 29°35' E 090°12'1 0.6 1023.8 23.7
2017-Mar-15 21:00S 29°34' E 090°12'3 0.8 1023.9 23.7
2017-Mar-15 17:00S 29°32' E 090°10'1 1.2 1025.5 23.7
2017-Mar-15 16:00S 29°31' E 090°10'0 0.0 1025.6 23.7
2017-Mar-15 15:00S 29°31' E 090°10'1 0.8 1025.6 23.7
2017-Mar-15 14:00S 29°30' E 090°09'1 0.6 1025.2 23.7
2017-Mar-15 12:00S 29°29' E 090°09'1 0.3 1025.0 23.7
2017-Mar-15 09:00S 29°28' E 090°08'2 0.3 1025.0 23.8
2017-Mar-15 03:00S 29°26' E 090°07'0 0.0 1027.0 23.7
2017-Mar-15 02:00S 29°26' E 090°07'1 1.2 1026.7 23.7
2017-Mar-15 01:00S 29°26' E 090°06'1 0.8 1026.4 23.7
2017-Mar-15 00:00S 29°25' E 090°05'3 1.1 1025.5 23.7
2017-Mar-14 21:00S 29°22' E 090°04'1 0.2 1025.2 23.7
2017-Mar-14 16:00S 29°22' E 090°03'1 0.6 1026.1 23.7
2017-Mar-14 15:00S 29°21' E 090°03'1 1.3 1025.9 23.7
2017-Mar-14 14:00S 29°20' E 090°02'0 0.0 1025.6 23.8
2017-Mar-14 13:00S 29°20' E 090°02'2 0.9 1025.1 23.8
2017-Mar-14 11:00S 29°18' E 090°02'3 1.5 1024.6 23.8
2017-Mar-14 09:00S 29°15' E 090°01'0 0.0 1024.8 23.8
2017-Mar-14 03:00S 29°15' E 090°01'1 1.3 1025.9 23.8
2017-Mar-14 02:00S 29°14' E 090°01'0 0.0 1025.3 23.8
2017-Mar-14 01:00S 29°14' E 090°01'2 0.8 1024.5 23.8
2017-Mar-13 23:00S 29°13' E 089°59'3 0.8 1023.4 23.8
2017-Mar-13 19:00S 29°10' E 089°58'0 0.0 1023.5 23.8
2017-Mar-13 18:00S 29°10' E 089°58'1 0.6 1023.7 23.8
2017-Mar-13 16:00S 29°08' E 089°58'   1023.4 23.8
Track history (hours):
 
Tides and Currents Weather Stations Pressure Air Temp Water Temp Dewpoint Dewpoint Depression Visibility Wind Speed Wind Dir Waves Ship Positions

Drifting buoy 16555

Last reported at 2017-Mar-23 16:00 UTC. Time now 2017-Mar-23 20:17 UTC.
Position S 30°38' E 090°37'.

Barometer 1024.8 mb
Water temperature 22.8 ° C

Date/timePositionNaut miles runAvg speedWind from/ knotsBaromVisibWave heightAir tempDewpointWater temp
2017-Mar-23 16:00S 30°38' E 090°37'1 0.8 1024.8 22.8
2017-Mar-23 15:00S 30°37' E 090°37'0 0.0 1024.7 22.8
2017-Mar-23 14:00S 30°37' E 090°37'2 0.7 1024.4 22.8
2017-Mar-23 11:00S 30°37' E 090°40'2 1.0 1023.2 22.9
2017-Mar-23 09:00S 30°35' E 090°38'1 0.1 1023.3 22.9
2017-Mar-23 03:00S 30°35' E 090°38'1 0.4 1024.5 22.9
2017-Mar-23 01:00S 30°35' E 090°38'2 1.9 1024.1 22.9
2017-Mar-23 00:00S 30°33' E 090°37'1 0.6 1023.7 22.9
2017-Mar-22 22:00S 30°32' E 090°37'3 0.8 1023.3 22.9
2017-Mar-22 18:00S 30°29' E 090°35'1 0.4 1024.1 22.9
2017-Mar-22 16:00S 30°28' E 090°36'1 0.8 1024.4 22.9
2017-Mar-22 15:00S 30°28' E 090°37'1 0.8 1024.3 22.9
2017-Mar-22 14:00S 30°27' E 090°37'0 0.0 1024.2 22.9
2017-Mar-22 13:00S 30°27' E 090°37'1 1.2 1023.7 22.9
2017-Mar-22 12:00S 30°26' E 090°38'1 0.5 1023.2 22.9
2017-Mar-22 11:00S 30°26' E 090°39'0 0.0 1023.2 23.0
2017-Mar-22 10:00S 30°26' E 090°39'0 0.0 1023.0 23.0
2017-Mar-22 09:00S 30°26' E 090°39'2 0.3 1023.0 23.0
2017-Mar-22 04:00S 30°26' E 090°37'1 0.8 1025.0 22.9
2017-Mar-22 03:00S 30°25' E 090°37'1 0.2 1025.0 22.9
2017-Mar-22 00:00S 30°25' E 090°37'2 1.9 1024.2 22.9
2017-Mar-21 23:00S 30°23' E 090°36'1 1.2 1023.7 22.9
2017-Mar-21 22:00S 30°22' E 090°36'0 0.0 1023.5 22.9
2017-Mar-21 21:00S 30°22' E 090°36'1 1.3 1023.7 22.9
2017-Mar-21 20:00S 30°20' E 090°35'0 0.0 1024.0 23.0
2017-Mar-21 19:00S 30°20' E 090°35'2 0.9 1024.5 23.0
2017-Mar-21 17:00S 30°19' E 090°35'0 0.0 1025.1 23.0
2017-Mar-21 16:00S 30°19' E 090°35'2 2.0 1025.3 23.0
2017-Mar-21 15:00S 30°17' E 090°37'1 0.3 1025.3 23.0
2017-Mar-21 13:00S 30°17' E 090°37'1 0.5 1024.8 23.0
2017-Mar-21 12:00S 30°17' E 090°38'1 0.3 1024.5 23.0
2017-Mar-21 09:00S 30°16' E 090°38'1 0.2 1024.0 23.1
2017-Mar-21 04:00S 30°16' E 090°37'0 0.0 1025.8 23.0
2017-Mar-21 03:00S 30°16' E 090°37'2 1.1 1025.9 23.0
2017-Mar-21 01:00S 30°15' E 090°35'1 1.2 1025.4 23.0
2017-Mar-21 00:00S 30°14' E 090°35'1 0.5 1025.0 23.1
2017-Mar-20 23:00S 30°14' E 090°34'2 1.9 1024.6 23.1
2017-Mar-20 22:00S 30°12' E 090°34'0 0.0 1024.7 23.1
2017-Mar-20 21:00S 30°12' E 090°34'2 0.6 1024.7 23.1
2017-Mar-20 18:00S 30°10' E 090°34'1 1.3 1025.3 23.1
2017-Mar-20 17:00S 30°09' E 090°35'1 0.3 1025.1 23.1
2017-Mar-20 13:00S 30°09' E 090°36'1 0.8 1024.7 23.2
2017-Mar-20 12:00S 30°08' E 090°37'0 0.0 1024.4 23.2
2017-Mar-20 11:00S 30°08' E 090°37'1 0.3 1024.2 23.2
2017-Mar-20 09:00S 30°08' E 090°37'0 0.0 1024.4 23.3
2017-Mar-20 08:00S 30°08' E 090°37'2 2.1 1024.6 23.3
2017-Mar-20 07:00S 30°07' E 090°36'2 0.3 1024.8 23.3
2017-Mar-20 02:00S 30°07' E 090°34'1 0.6 1026.0 23.2
2017-Mar-20 01:00S 30°07' E 090°34'0 0.0 1025.9 23.2
2017-Mar-20 00:00S 30°07' E 090°34'2 1.0 1025.8 23.2
2017-Mar-19 22:00S 30°05' E 090°32'1 1.3 1025.4 23.2
2017-Mar-19 21:00S 30°04' E 090°32'2 0.4 1025.8 23.2
2017-Mar-19 16:00S 30°02' E 090°31'0 0.0 1027.7 23.2
2017-Mar-19 15:00S 30°02' E 090°31'1 0.6 1027.7 23.2
2017-Mar-19 14:00S 30°02' E 090°31'0 0.0 1027.8 23.2
2017-Mar-19 12:00S 30°02' E 090°31'1 0.4 1027.5 23.3
2017-Mar-19 10:00S 30°01' E 090°31'1 0.5 1026.8 23.3
2017-Mar-19 09:00S 30°01' E 090°31'0 0.0 1026.6 23.3
2017-Mar-19 08:00S 30°01' E 090°31'3 0.4 1026.8 23.3
2017-Mar-19 02:00S 30°01' E 090°28'1 0.8 1029.1 23.2
2017-Mar-19 01:00S 30°00' E 090°28'0 0.0 1028.8 23.2
2017-Mar-19 00:00S 30°00' E 090°28'1 0.5 1028.4 23.2
2017-Mar-18 23:00S 30°00' E 090°28'1 0.7 1027.9 23.2
2017-Mar-18 21:00S 29°59' E 090°28'4 0.7 1028.3 23.2
2017-Mar-18 16:00S 29°56' E 090°25'1 0.6 1030.1 23.3
2017-Mar-18 14:00S 29°55' E 090°25'1 0.3 1029.9 23.3
2017-Mar-18 12:00S 29°55' E 090°26'1 1.2 1029.0 23.3
2017-Mar-18 11:00S 29°53' E 090°26'1 0.6 1029.0 23.3
2017-Mar-18 10:00S 29°54' E 090°26'1 0.6 1028.7 23.3
2017-Mar-18 09:00S 29°53' E 090°26'1 0.2 1028.5 23.3
2017-Mar-18 04:00S 29°53' E 090°25'1 0.5 1030.0 23.3
2017-Mar-18 03:00S 29°53' E 090°25'2 1.1 1029.8 23.3
2017-Mar-18 01:00S 29°52' E 090°22'0 0.0 1029.2 23.4
2017-Mar-18 00:00S 29°52' E 090°22'1 0.8 1028.8 23.4
2017-Mar-17 23:00S 29°52' E 090°22'2 0.6 1028.4 23.4
2017-Mar-17 20:00S 29°50' E 090°21'3 0.8 1027.6 23.4
2017-Mar-17 16:00S 29°47' E 090°22'2 0.8 1027.4 23.5
2017-Mar-17 14:00S 29°46' E 090°20'1 0.3 1026.5 23.5
2017-Mar-17 12:00S 29°45' E 090°20'0 0.0 1025.2 23.5
2017-Mar-17 11:00S 29°45' E 090°20'1 0.4 1024.9 23.6
2017-Mar-17 09:00S 29°44' E 090°21'1 0.1 1024.2 23.6
2017-Mar-17 04:00S 29°44' E 090°21'0 0.0 1024.4 23.6
2017-Mar-17 03:00S 29°44' E 090°21'2 0.8 1024.0 23.5
2017-Mar-17 01:00S 29°43' E 090°19'0 0.0 1023.3 23.6
2017-Mar-17 00:00S 29°43' E 090°19'1 1.0 1022.3 23.6
2017-Mar-16 23:00S 29°43' E 090°18'0 0.0 1022.1 23.6
2017-Mar-16 22:00S 29°43' E 090°18'0 0.0 1021.9 23.6
2017-Mar-16 21:00S 29°43' E 090°18'3 2.6 1022.1 23.6
2017-Mar-16 20:00S 29°41' E 090°17'1 0.4 1021.9 23.6
2017-Mar-16 17:00S 29°40' E 090°17'0 0.0 1022.9 23.6
2017-Mar-16 16:00S 29°40' E 090°17'0 0.0 1023.2 23.6
2017-Mar-16 15:00S 29°40' E 090°17'1 0.6 1023.2 23.6
2017-Mar-16 14:00S 29°39' E 090°17'0 0.0 1022.8 23.6
2017-Mar-16 13:00S 29°39' E 090°17'1 0.5 1022.4 23.6
2017-Mar-16 12:00S 29°39' E 090°16'1 0.5 1022.4 23.6
2017-Mar-16 11:00S 29°39' E 090°16'1 0.8 1022.4 23.7
2017-Mar-16 10:00S 29°38' E 090°16'1 0.8 1022.6 23.7
2017-Mar-16 09:00S 29°38' E 090°16'2 2.0 1022.4 23.7
2017-Mar-16 08:00S 29°37' E 090°14'1 0.1 1022.8 23.7
2017-Mar-16 04:00S 29°37' E 090°14'1 0.8 1024.6 23.6
2017-Mar-16 03:00S 29°36' E 090°14'1 0.5 1024.8 23.6
2017-Mar-16 02:00S 29°36' E 090°13'1 0.8 1024.6 23.6
2017-Mar-16 01:00S 29°35' E 090°13'0 0.0 1024.7 23.7
2017-Mar-16 00:00S 29°35' E 090°13'0 0.0 1024.2 23.7
2017-Mar-15 23:00S 29°35' E 090°13'1 0.8 1023.8 23.7
2017-Mar-15 22:00S 29°35' E 090°12'1 0.6 1023.8 23.7
2017-Mar-15 21:00S 29°34' E 090°12'3 0.8 1023.9 23.7
2017-Mar-15 17:00S 29°32' E 090°10'1 1.2 1025.5 23.7
2017-Mar-15 16:00S 29°31' E 090°10'0 0.0 1025.6 23.7
2017-Mar-15 15:00S 29°31' E 090°10'1 0.8 1025.6 23.7
2017-Mar-15 14:00S 29°30' E 090°09'1 0.6 1025.2 23.7
2017-Mar-15 12:00S 29°29' E 090°09'1 0.3 1025.0 23.7
2017-Mar-15 09:00S 29°28' E 090°08'2 0.3 1025.0 23.8
2017-Mar-15 03:00S 29°26' E 090°07'0 0.0 1027.0 23.7
2017-Mar-15 02:00S 29°26' E 090°07'1 1.2 1026.7 23.7
2017-Mar-15 01:00S 29°26' E 090°06'1 0.8 1026.4 23.7
2017-Mar-15 00:00S 29°25' E 090°05'3 1.1 1025.5 23.7
2017-Mar-14 21:00S 29°22' E 090°04'1 0.2 1025.2 23.7
2017-Mar-14 16:00S 29°22' E 090°03'1 0.6 1026.1 23.7
2017-Mar-14 15:00S 29°21' E 090°03'1 1.3 1025.9 23.7
2017-Mar-14 14:00S 29°20' E 090°02'0 0.0 1025.6 23.8
2017-Mar-14 13:00S 29°20' E 090°02'2 0.9 1025.1 23.8
2017-Mar-14 11:00S 29°18' E 090°02'3 1.5 1024.6 23.8
2017-Mar-14 09:00S 29°15' E 090°01'0 0.0 1024.8 23.8
2017-Mar-14 03:00S 29°15' E 090°01'1 1.3 1025.9 23.8
2017-Mar-14 02:00S 29°14' E 090°01'0 0.0 1025.3 23.8
2017-Mar-14 01:00S 29°14' E 090°01'2 0.8 1024.5 23.8
2017-Mar-13 23:00S 29°13' E 089°59'3 0.8 1023.4 23.8
2017-Mar-13 19:00S 29°10' E 089°58'0 0.0 1023.5 23.8
2017-Mar-13 18:00S 29°10' E 089°58'1 0.6 1023.7 23.8
2017-Mar-13 16:00S 29°08' E 089°58'   1023.4 23.8

Dump ship's entire track history